sensor_id;sensor_type;location;lat;lon;timestamp;pressure;altitude;pressure_sealevel;temperature;humidity
68169;BME280;54981;50.206;15.978;2022-11-23T00:01:26;97730.34;;;1.20;100.00
68169;BME280;54981;50.206;15.978;2022-11-23T00:03:54;97734.78;;;1.18;100.00
68169;BME280;54981;50.206;15.978;2022-11-23T00:06:21;97738.31;;;1.17;100.00
68169;BME280;54981;50.206;15.978;2022-11-23T00:08:48;97740.25;;;1.12;100.00
68169;BME280;54981;50.206;15.978;2022-11-23T00:11:14;97738.53;;;1.11;100.00
68169;BME280;54981;50.206;15.978;2022-11-23T00:13:40;97729.78;;;1.12;100.00
68169;BME280;54981;50.206;15.978;2022-11-23T00:16:13;97733.06;;;1.17;100.00
68169;BME280;54981;50.206;15.978;2022-11-23T00:18:38;97718.44;;;1.11;100.00
68169;BME280;54981;50.206;15.978;2022-11-23T00:21:08;97723.00;;;1.06;100.00
68169;BME280;54981;50.206;15.978;2022-11-23T00:23:34;97724.66;;;1.09;100.00
68169;BME280;54981;50.206;15.978;2022-11-23T00:26:00;97724.53;;;1.12;100.00
68169;BME280;54981;50.206;15.978;2022-11-23T00:28:25;97731.13;;;1.22;100.00
68169;BME280;54981;50.206;15.978;2022-11-23T00:30:51;97734.44;;;1.27;100.00
68169;BME280;54981;50.206;15.978;2022-11-23T00:33:16;97743.09;;;1.29;100.00
68169;BME280;54981;50.206;15.978;2022-11-23T00:35:42;97740.31;;;1.34;100.00
68169;BME280;54981;50.206;15.978;2022-11-23T00:38:08;97747.97;;;1.40;100.00
68169;BME280;54981;50.206;15.978;2022-11-23T00:40:33;97737.31;;;1.44;100.00
68169;BME280;54981;50.206;15.978;2022-11-23T00:42:58;97738.88;;;1.48;100.00
68169;BME280;54981;50.206;15.978;2022-11-23T00:45:24;97735.19;;;1.54;100.00
68169;BME280;54981;50.206;15.978;2022-11-23T00:47:49;97739.47;;;1.33;100.00
68169;BME280;54981;50.206;15.978;2022-11-23T00:50:15;97733.88;;;1.19;100.00
68169;BME280;54981;50.206;15.978;2022-11-23T00:52:40;97729.28;;;1.25;100.00
68169;BME280;54981;50.206;15.978;2022-11-23T00:55:06;97741.28;;;1.31;100.00
68169;BME280;54981;50.206;15.978;2022-11-23T00:57:32;97746.31;;;1.37;100.00
68169;BME280;54981;50.206;15.978;2022-11-23T00:59:59;97741.16;;;1.34;100.00
68169;BME280;54981;50.206;15.978;2022-11-23T01:02:25;97743.50;;;1.42;100.00
68169;BME280;54981;50.206;15.978;2022-11-23T01:04:50;97744.38;;;1.42;100.00
68169;BME280;54981;50.206;15.978;2022-11-23T01:07:15;97750.34;;;1.46;100.00
68169;BME280;54981;50.206;15.978;2022-11-23T01:09:40;97749.28;;;1.52;100.00
68169;BME280;54981;50.206;15.978;2022-11-23T01:12:06;97747.25;;;1.58;100.00
68169;BME280;54981;50.206;15.978;2022-11-23T01:14:31;97736.72;;;1.60;100.00
68169;BME280;54981;50.206;15.978;2022-11-23T01:16:57;97738.66;;;1.55;100.00
68169;BME280;54981;50.206;15.978;2022-11-23T01:19:22;97734.72;;;1.43;100.00
68169;BME280;54981;50.206;15.978;2022-11-23T01:21:47;97733.81;;;1.44;100.00
68169;BME280;54981;50.206;15.978;2022-11-23T01:24:19;97739.13;;;1.42;100.00
68169;BME280;54981;50.206;15.978;2022-11-23T01:26:44;97744.25;;;1.45;100.00
68169;BME280;54981;50.206;15.978;2022-11-23T01:29:10;97736.22;;;1.50;100.00
68169;BME280;54981;50.206;15.978;2022-11-23T01:31:36;97737.00;;;1.52;100.00
68169;BME280;54981;50.206;15.978;2022-11-23T01:34:03;97735.00;;;1.59;100.00
68169;BME280;54981;50.206;15.978;2022-11-23T01:36:30;97737.44;;;1.63;100.00
68169;BME280;54981;50.206;15.978;2022-11-23T01:38:57;97720.22;;;1.56;100.00
68169;BME280;54981;50.206;15.978;2022-11-23T01:41:29;97724.75;;;1.53;100.00
68169;BME280;54981;50.206;15.978;2022-11-23T01:43:55;97731.19;;;1.44;100.00
68169;BME280;54981;50.206;15.978;2022-11-23T01:46:21;97746.91;;;1.44;100.00
68169;BME280;54981;50.206;15.978;2022-11-23T01:49:01;97744.19;;;1.47;100.00
68169;BME280;54981;50.206;15.978;2022-11-23T01:51:42;97742.25;;;1.52;100.00
68169;BME280;54981;50.206;15.978;2022-11-23T01:54:26;97738.53;;;1.58;100.00
68169;BME280;54981;50.206;15.978;2022-11-23T01:56:55;97745.38;;;1.62;100.00
68169;BME280;54981;50.206;15.978;2022-11-23T01:59:24;97744.28;;;1.67;100.00
68169;BME280;54981;50.206;15.978;2022-11-23T02:01:50;97745.09;;;1.69;100.00
68169;BME280;54981;50.206;15.978;2022-11-23T02:04:21;97746.69;;;1.74;100.00
68169;BME280;54981;50.206;15.978;2022-11-23T02:06:48;97743.09;;;1.76;100.00
68169;BME280;54981;50.206;15.978;2022-11-23T02:09:15;97752.59;;;1.79;100.00
68169;BME280;54981;50.206;15.978;2022-11-23T02:11:41;97745.59;;;1.79;100.00
68169;BME280;54981;50.206;15.978;2022-11-23T02:14:07;97734.41;;;1.74;100.00
68169;BME280;54981;50.206;15.978;2022-11-23T02:16:33;97738.19;;;1.67;100.00
68169;BME280;54981;50.206;15.978;2022-11-23T02:18:59;97734.94;;;1.60;100.00
68169;BME280;54981;50.206;15.978;2022-11-23T02:21:24;97737.50;;;1.62;100.00
68169;BME280;54981;50.206;15.978;2022-11-23T02:23:54;97731.22;;;1.66;100.00
68169;BME280;54981;50.206;15.978;2022-11-23T02:26:28;97734.63;;;1.68;100.00
68169;BME280;54981;50.206;15.978;2022-11-23T02:29:02;97730.13;;;1.72;100.00
68169;BME280;54981;50.206;15.978;2022-11-23T02:31:28;97728.31;;;1.74;100.00
68169;BME280;54981;50.206;15.978;2022-11-23T02:33:53;97726.41;;;1.77;100.00
68169;BME280;54981;50.206;15.978;2022-11-23T02:36:36;97725.50;;;1.78;100.00
68169;BME280;54981;50.206;15.978;2022-11-23T02:39:13;97728.84;;;1.82;100.00
68169;BME280;54981;50.206;15.978;2022-11-23T02:41:43;97728.91;;;1.80;100.00
68169;BME280;54981;50.206;15.978;2022-11-23T02:46:46;97734.78;;;1.87;100.00
68169;BME280;54981;50.206;15.978;2022-11-23T02:49:12;97736.50;;;1.88;100.00
68169;BME280;54981;50.206;15.978;2022-11-23T02:51:37;97734.91;;;1.84;100.00
68169;BME280;54981;50.206;15.978;2022-11-23T02:54:02;97740.34;;;1.79;100.00
68169;BME280;54981;50.206;15.978;2022-11-23T02:56:28;97733.25;;;1.81;100.00
68169;BME280;54981;50.206;15.978;2022-11-23T02:58:53;97740.16;;;1.84;100.00
68169;BME280;54981;50.206;15.978;2022-11-23T03:01:18;97737.56;;;1.82;100.00
68169;BME280;54981;50.206;15.978;2022-11-23T03:03:44;97736.59;;;1.85;100.00
68169;BME280;54981;50.206;15.978;2022-11-23T03:06:09;97736.59;;;1.85;100.00
68169;BME280;54981;50.206;15.978;2022-11-23T03:08:34;97746.25;;;1.84;100.00
68169;BME280;54981;50.206;15.978;2022-11-23T03:11:00;97745.16;;;1.90;100.00
68169;BME280;54981;50.206;15.978;2022-11-23T03:13:26;97747.41;;;1.77;100.00
68169;BME280;54981;50.206;15.978;2022-11-23T03:15:54;97748.69;;;1.67;100.00
68169;BME280;54981;50.206;15.978;2022-11-23T03:18:21;97739.34;;;1.60;100.00
68169;BME280;54981;50.206;15.978;2022-11-23T03:20:46;97748.34;;;1.53;100.00
68169;BME280;54981;50.206;15.978;2022-11-23T03:23:11;97754.63;;;1.48;100.00
68169;BME280;54981;50.206;15.978;2022-11-23T03:25:37;97747.81;;;1.44;100.00
68169;BME280;54981;50.206;15.978;2022-11-23T03:28:02;97749.63;;;1.42;100.00
68169;BME280;54981;50.206;15.978;2022-11-23T03:30:27;97752.25;;;1.42;100.00
68169;BME280;54981;50.206;15.978;2022-11-23T03:32:53;97746.06;;;1.43;100.00
68169;BME280;54981;50.206;15.978;2022-11-23T03:35:18;97752.25;;;1.42;100.00
68169;BME280;54981;50.206;15.978;2022-11-23T03:37:44;97736.25;;;1.48;100.00
68169;BME280;54981;50.206;15.978;2022-11-23T03:40:09;97735.13;;;1.56;100.00
68169;BME280;54981;50.206;15.978;2022-11-23T03:42:34;97737.69;;;1.57;100.00
68169;BME280;54981;50.206;15.978;2022-11-23T03:45:00;97736.72;;;1.60;100.00
68169;BME280;54981;50.206;15.978;2022-11-23T03:47:25;97733.91;;;1.64;100.00
68169;BME280;54981;50.206;15.978;2022-11-23T03:49:50;97734.75;;;1.65;100.00
68169;BME280;54981;50.206;15.978;2022-11-23T03:52:16;97737.22;;;1.69;100.00
68169;BME280;54981;50.206;15.978;2022-11-23T03:54:41;97727.53;;;1.72;100.00
68169;BME280;54981;50.206;15.978;2022-11-23T03:57:06;97729.97;;;1.76;100.00
68169;BME280;54981;50.206;15.978;2022-11-23T03:59:32;97736.91;;;1.77;100.00
68169;BME280;54981;50.206;15.978;2022-11-23T04:01:57;97733.25;;;1.81;100.00
68169;BME280;54981;50.206;15.978;2022-11-23T04:04:22;97732.22;;;1.85;100.00
68169;BME280;54981;50.206;15.978;2022-11-23T04:06:47;97723.31;;;1.89;100.00
68169;BME280;54981;50.206;15.978;2022-11-23T04:09:13;97730.28;;;1.90;100.00
68169;BME280;54981;50.206;15.978;2022-11-23T04:11:38;97726.84;;;1.88;100.00
68169;BME280;54981;50.206;15.978;2022-11-23T04:14:04;97726.72;;;1.91;100.00
68169;BME280;54981;50.206;15.978;2022-11-23T04:16:29;97726.59;;;1.95;100.00
68169;BME280;54981;50.206;15.978;2022-11-23T04:18:54;97721.28;;;1.96;100.00
68169;BME280;54981;50.206;15.978;2022-11-23T04:21:20;97732.59;;;1.98;100.00
68169;BME280;54981;50.206;15.978;2022-11-23T04:23:45;97723.06;;;1.96;100.00
68169;BME280;54981;50.206;15.978;2022-11-23T04:26:10;97716.34;;;1.88;100.00
68169;BME280;54981;50.206;15.978;2022-11-23T04:28:36;97725.13;;;1.87;100.00
68169;BME280;54981;50.206;15.978;2022-11-23T04:31:01;97727.69;;;1.89;100.00
68169;BME280;54981;50.206;15.978;2022-11-23T04:33:26;97726.72;;;1.91;100.00
68169;BME280;54981;50.206;15.978;2022-11-23T04:35:52;97721.81;;;2.04;100.00
68169;BME280;54981;50.206;15.978;2022-11-23T04:38:17;97733.69;;;2.15;100.00
68169;BME280;54981;50.206;15.978;2022-11-23T04:40:45;97735.34;;;2.17;100.00
68169;BME280;54981;50.206;15.978;2022-11-23T04:43:11;97741.75;;;2.10;100.00
68169;BME280;54981;50.206;15.978;2022-11-23T04:45:39;97738.31;;;2.08;100.00
68169;BME280;54981;50.206;15.978;2022-11-23T04:48:05;97736.63;;;2.07;100.00
68169;BME280;54981;50.206;15.978;2022-11-23T04:50:32;97747.13;;;2.07;100.00
68169;BME280;54981;50.206;15.978;2022-11-23T04:52:58;97749.75;;;2.07;100.00
68169;BME280;54981;50.206;15.978;2022-11-23T04:55:24;97737.41;;;2.09;100.00
68169;BME280;54981;50.206;15.978;2022-11-23T04:57:49;97749.69;;;2.08;100.00
68169;BME280;54981;50.206;15.978;2022-11-23T05:00:15;97748.69;;;2.11;100.00
68169;BME280;54981;50.206;15.978;2022-11-23T05:02:40;97745.28;;;2.09;100.00
68169;BME280;54981;50.206;15.978;2022-11-23T05:05:06;97758.34;;;2.10;100.00
68169;BME280;54981;50.206;15.978;2022-11-23T05:07:32;97753.94;;;2.11;100.00
68169;BME280;54981;50.206;15.978;2022-11-23T05:09:57;97756.66;;;2.09;100.00
68169;BME280;54981;50.206;15.978;2022-11-23T05:12:22;97747.84;;;2.10;100.00
68169;BME280;54981;50.206;15.978;2022-11-23T05:14:48;97760.19;;;2.08;100.00
68169;BME280;54981;50.206;15.978;2022-11-23T05:17:13;97755.78;;;2.09;100.00
68169;BME280;54981;50.206;15.978;2022-11-23T05:19:38;97764.41;;;2.12;100.00
68169;BME280;54981;50.206;15.978;2022-11-23T05:22:04;97768.84;;;2.10;100.00
68169;BME280;54981;50.206;15.978;2022-11-23T05:24:29;97772.31;;;2.11;100.00
68169;BME280;54981;50.206;15.978;2022-11-23T05:26:54;97770.63;;;2.10;100.00
68169;BME280;54981;50.206;15.978;2022-11-23T05:29:20;97769.69;;;2.11;100.00
68169;BME280;54981;50.206;15.978;2022-11-23T05:31:45;97767.16;;;2.09;100.00
68169;BME280;54981;50.206;15.978;2022-11-23T05:34:10;97777.44;;;2.14;100.00
68169;BME280;54981;50.206;15.978;2022-11-23T05:36:35;97772.59;;;2.05;100.00
68169;BME280;54981;50.206;15.978;2022-11-23T05:39:01;97779.41;;;2.09;100.00
68169;BME280;54981;50.206;15.978;2022-11-23T05:41:26;97780.47;;;2.05;100.00
68169;BME280;54981;50.206;15.978;2022-11-23T05:43:51;97784.72;;;2.07;100.00
68169;BME280;54981;50.206;15.978;2022-11-23T05:46:17;97782.09;;;2.07;100.00
68169;BME280;54981;50.206;15.978;2022-11-23T05:48:43;97783.09;;;2.05;100.00
68169;BME280;54981;50.206;15.978;2022-11-23T05:51:09;97789.22;;;2.04;100.00
68169;BME280;54981;50.206;15.978;2022-11-23T05:53:34;97790.16;;;2.03;100.00
68169;BME280;54981;50.206;15.978;2022-11-23T05:56:00;97789.34;;;2.01;100.00
68169;BME280;54981;50.206;15.978;2022-11-23T05:58:27;97780.69;;;1.99;100.00
68169;BME280;54981;50.206;15.978;2022-11-23T06:00:59;97790.28;;;2.00;100.00
68169;BME280;54981;50.206;15.978;2022-11-23T06:03:25;97790.16;;;2.03;100.00
68169;BME280;54981;50.206;15.978;2022-11-23T06:05:50;97786.78;;;1.99;100.00
68169;BME280;54981;50.206;15.978;2022-11-23T06:08:16;97790.22;;;2.01;100.00
68169;BME280;54981;50.206;15.978;2022-11-23T06:10:41;97794.47;;;2.04;100.00
68169;BME280;54981;50.206;15.978;2022-11-23T06:13:07;97791.84;;;2.04;100.00
68169;BME280;54981;50.206;15.978;2022-11-23T06:15:32;97791.06;;;2.02;100.00
68169;BME280;54981;50.206;15.978;2022-11-23T06:17:59;97787.53;;;2.03;100.00
68169;BME280;54981;50.206;15.978;2022-11-23T06:20:25;97799.88;;;2.01;100.00
68169;BME280;54981;50.206;15.978;2022-11-23T06:22:54;97799.09;;;1.97;100.00
68169;BME280;54981;50.206;15.978;2022-11-23T06:25:20;97796.56;;;1.96;100.00
68169;BME280;54981;50.206;15.978;2022-11-23T06:27:56;97803.50;;;1.97;100.00
68169;BME280;54981;50.206;15.978;2022-11-23T06:30:22;97802.53;;;1.99;100.00
68169;BME280;54981;50.206;15.978;2022-11-23T06:32:48;97805.16;;;1.99;100.00
68169;BME280;54981;50.206;15.978;2022-11-23T06:35:13;97800.03;;;1.96;100.00
68169;BME280;54981;50.206;15.978;2022-11-23T06:37:39;97802.50;;;2.01;100.00
68169;BME280;54981;50.206;15.978;2022-11-23T06:40:04;97800.59;;;2.04;100.00
68169;BME280;54981;50.206;15.978;2022-11-23T06:42:30;97801.38;;;2.06;100.00
68169;BME280;54981;50.206;15.978;2022-11-23T06:44:55;97800.66;;;2.03;100.00
68169;BME280;54981;50.206;15.978;2022-11-23T06:47:20;97803.97;;;2.08;100.00
68169;BME280;54981;50.206;15.978;2022-11-23T06:49:46;97809.22;;;2.08;100.00
68169;BME280;54981;50.206;15.978;2022-11-23T06:52:11;97807.50;;;2.07;100.00
68169;BME280;54981;50.206;15.978;2022-11-23T06:54:38;97808.28;;;2.09;100.00
68169;BME280;54981;50.206;15.978;2022-11-23T06:57:06;97813.44;;;2.12;100.00
68169;BME280;54981;50.206;15.978;2022-11-23T06:59:32;97810.69;;;2.15;100.00
68169;BME280;54981;50.206;15.978;2022-11-23T07:01:57;97807.25;;;2.13;100.00
68169;BME280;54981;50.206;15.978;2022-11-23T07:04:22;97809.84;;;2.15;100.00
68169;BME280;54981;50.206;15.978;2022-11-23T07:06:48;97826.31;;;2.18;100.00
68169;BME280;54981;50.206;15.978;2022-11-23T07:09:13;97819.22;;;2.20;100.00
68169;BME280;54981;50.206;15.978;2022-11-23T07:11:39;97814.78;;;2.22;100.00
68169;BME280;54981;50.206;15.978;2022-11-23T07:14:04;97823.53;;;2.21;100.00
68169;BME280;54981;50.206;15.978;2022-11-23T07:16:29;97825.28;;;2.22;100.00
68169;BME280;54981;50.206;15.978;2022-11-23T07:18:56;97827.91;;;2.22;100.00
68169;BME280;54981;50.206;15.978;2022-11-23T07:21:21;97828.75;;;2.23;100.00
68169;BME280;54981;50.206;15.978;2022-11-23T07:23:46;97837.38;;;2.26;100.00
68169;BME280;54981;50.206;15.978;2022-11-23T07:26:12;97844.19;;;2.30;100.00
68169;BME280;54981;50.206;15.978;2022-11-23T07:28:37;97841.34;;;2.37;100.00
68169;BME280;54981;50.206;15.978;2022-11-23T07:31:02;97836.22;;;2.33;100.00
68169;BME280;54981;50.206;15.978;2022-11-23T07:33:28;97833.69;;;2.30;100.00
68169;BME280;54981;50.206;15.978;2022-11-23T07:35:53;97837.25;;;2.29;100.00
68169;BME280;54981;50.206;15.978;2022-11-23T07:38:18;97842.50;;;2.29;100.00
68169;BME280;54981;50.206;15.978;2022-11-23T07:40:48;97843.34;;;2.30;100.00
68169;BME280;54981;50.206;15.978;2022-11-23T07:43:13;97842.47;;;2.31;100.00
68169;BME280;54981;50.206;15.978;2022-11-23T07:45:39;97838.09;;;2.30;100.00
68169;BME280;54981;50.206;15.978;2022-11-23T07:48:06;97838.28;;;2.25;100.00
68169;BME280;54981;50.206;15.978;2022-11-23T07:50:33;97845.31;;;2.25;100.00
68169;BME280;54981;50.206;15.978;2022-11-23T07:53:01;97847.75;;;2.29;100.00
68169;BME280;54981;50.206;15.978;2022-11-23T07:55:27;97850.19;;;2.34;100.00
68169;BME280;54981;50.206;15.978;2022-11-23T07:57:53;97857.91;;;2.39;100.00
68169;BME280;54981;50.206;15.978;2022-11-23T08:00:20;97851.72;;;2.40;100.00
68169;BME280;54981;50.206;15.978;2022-11-23T08:02:45;97855.19;;;2.40;100.00
68169;BME280;54981;50.206;15.978;2022-11-23T08:05:11;97848.38;;;2.36;100.00
68169;BME280;54981;50.206;15.978;2022-11-23T08:07:37;97849.28;;;2.35;100.00
68169;BME280;54981;50.206;15.978;2022-11-23T08:10:03;97848.72;;;2.27;100.00
68169;BME280;54981;50.206;15.978;2022-11-23T08:12:28;97842.47;;;2.31;100.00
68169;BME280;54981;50.206;15.978;2022-11-23T08:14:54;97846.72;;;2.33;100.00
68169;BME280;54981;50.206;15.978;2022-11-23T08:17:19;97846.66;;;2.35;100.00
68169;BME280;54981;50.206;15.978;2022-11-23T08:19:45;97833.59;;;2.33;100.00
68169;BME280;54981;50.206;15.978;2022-11-23T08:22:10;97837.00;;;2.35;100.00
68169;BME280;54981;50.206;15.978;2022-11-23T08:24:35;97837.75;;;2.39;100.00
68169;BME280;54981;50.206;15.978;2022-11-23T08:27:00;97839.34;;;2.43;100.00
68169;BME280;54981;50.206;15.978;2022-11-23T08:29:26;97833.03;;;2.47;100.00
68169;BME280;54981;50.206;15.978;2022-11-23T08:31:52;97830.03;;;2.56;100.00
68169;BME280;54981;50.206;15.978;2022-11-23T08:34:17;97827.28;;;2.60;100.00
68169;BME280;54981;50.206;15.978;2022-11-23T08:36:44;97825.25;;;2.66;100.00
68169;BME280;54981;50.206;15.978;2022-11-23T08:39:09;97826.19;;;2.65;100.00
68169;BME280;54981;50.206;15.978;2022-11-23T08:41:36;97826.19;;;2.65;100.00
68169;BME280;54981;50.206;15.978;2022-11-23T08:44:02;97819.19;;;2.64;100.00
68169;BME280;54981;50.206;15.978;2022-11-23T08:46:28;97820.09;;;2.65;100.00
68169;BME280;54981;50.206;15.978;2022-11-23T08:48:53;97821.78;;;2.66;100.00
68169;BME280;54981;50.206;15.978;2022-11-23T08:51:19;97815.41;;;2.71;100.00
68169;BME280;54981;50.206;15.978;2022-11-23T08:53:49;97818.81;;;2.73;100.00
68169;BME280;54981;50.206;15.978;2022-11-23T08:56:15;97816.19;;;2.73;100.00
68169;BME280;54981;50.206;15.978;2022-11-23T08:58:41;97810.69;;;2.80;100.00
68169;BME280;54981;50.206;15.978;2022-11-23T09:01:08;97813.72;;;2.91;100.00
68169;BME280;54981;50.206;15.978;2022-11-23T09:03:33;97809.91;;;2.98;100.00
68169;BME280;54981;50.206;15.978;2022-11-23T09:05:59;97812.22;;;3.06;100.00
68169;BME280;54981;50.206;15.978;2022-11-23T09:08:24;97807.28;;;3.18;100.00
68169;BME280;54981;50.206;15.978;2022-11-23T09:10:50;97806.50;;;3.37;100.00
68169;BME280;54981;50.206;15.978;2022-11-23T09:13:15;97804.09;;;3.51;100.00
68169;BME280;54981;50.206;15.978;2022-11-23T09:15:40;97804.75;;;3.56;100.00
68169;BME280;54981;50.206;15.978;2022-11-23T09:18:06;97804.44;;;3.62;100.00
68169;BME280;54981;50.206;15.978;2022-11-23T09:20:31;97798.28;;;3.82;100.00
68169;BME280;54981;50.206;15.978;2022-11-23T09:22:57;97796.56;;;3.81;100.00
68169;BME280;54981;50.206;15.978;2022-11-23T09:25:22;97788.25;;;3.91;100.00
68169;BME280;54981;50.206;15.978;2022-11-23T09:27:48;97790.50;;;3.98;100.00
68169;BME280;54981;50.206;15.978;2022-11-23T09:30:15;97786.81;;;4.02;100.00
68169;BME280;54981;50.206;15.978;2022-11-23T09:32:41;97789.88;;;4.12;100.00
68169;BME280;54981;50.206;15.978;2022-11-23T09:35:07;97787.94;;;4.16;100.00
68169;BME280;54981;50.206;15.978;2022-11-23T09:37:32;97784.25;;;4.37;100.00
68169;BME280;54981;50.206;15.978;2022-11-23T09:39:58;97787.44;;;4.26;100.00
68169;BME280;54981;50.206;15.978;2022-11-23T09:42:41;97782.06;;;4.28;100.00
68169;BME280;54981;50.206;15.978;2022-11-23T09:45:17;97780.53;;;4.24;100.00
68169;BME280;54981;50.206;15.978;2022-11-23T09:48:04;97777.81;;;4.25;100.00
68169;BME280;54981;50.206;15.978;2022-11-23T09:53:12;97762.78;;;4.27;100.00
68169;BME280;54981;50.206;15.978;2022-11-23T09:55:44;97756.06;;;4.39;100.00
68169;BME280;54981;50.206;15.978;2022-11-23T09:58:19;97756.56;;;4.47;100.00
68169;BME280;54981;50.206;15.978;2022-11-23T10:00:52;97757.91;;;4.37;100.00
68169;BME280;54981;50.206;15.978;2022-11-23T10:03:19;97763.06;;;4.40;100.00
68169;BME280;54981;50.206;15.978;2022-11-23T10:05:53;97754.50;;;4.35;100.00
68169;BME280;54981;50.206;15.978;2022-11-23T10:08:40;97762.19;;;4.40;100.00
68169;BME280;54981;50.206;15.978;2022-11-23T10:24:41;97749.00;;;4.40;100.00
68169;BME280;54981;50.206;15.978;2022-11-23T10:27:17;97754.22;;;4.41;100.00
68169;BME280;54981;50.206;15.978;2022-11-23T10:29:43;97753.34;;;4.41;100.00
68169;BME280;54981;50.206;15.978;2022-11-23T10:32:31;97754.75;;;4.48;100.00
68169;BME280;54981;50.206;15.978;2022-11-23T10:35:32;97752.03;;;4.49;100.00
68169;BME280;54981;50.206;15.978;2022-11-23T10:40:42;97743.44;;;4.46;100.00
68169;BME280;54981;50.206;15.978;2022-11-23T10:43:14;97743.38;;;4.47;100.00
68169;BME280;54981;50.206;15.978;2022-11-23T10:45:41;97734.53;;;4.48;100.00
68169;BME280;54981;50.206;15.978;2022-11-23T10:48:06;97740.88;;;4.44;100.00
68169;BME280;54981;50.206;15.978;2022-11-23T10:50:35;97732.84;;;4.47;100.00
68169;BME280;54981;50.206;15.978;2022-11-23T10:55:55;97727.56;;;4.47;100.00
68169;BME280;54981;50.206;15.978;2022-11-23T10:58:26;97730.88;;;4.51;100.00
68169;BME280;54981;50.206;15.978;2022-11-23T11:00:59;97727.06;;;4.57;100.00
68169;BME280;54981;50.206;15.978;2022-11-23T11:03:24;97735.06;;;4.55;100.00
68169;BME280;54981;50.206;15.978;2022-11-23T11:05:50;97729.41;;;4.63;100.00
68169;BME280;54981;50.206;15.978;2022-11-23T11:08:17;97724.22;;;4.61;100.00
68169;BME280;54981;50.206;15.978;2022-11-23T11:11:01;97718.47;;;4.70;100.00
68169;BME280;54981;50.206;15.978;2022-11-23T11:13:46;97715.31;;;4.81;100.00
68169;BME280;54981;50.206;15.978;2022-11-23T11:16:24;97722.44;;;4.79;100.00
68169;BME280;54981;50.206;15.978;2022-11-23T11:18:50;97713.97;;;4.73;100.00
68169;BME280;54981;50.206;15.978;2022-11-23T11:21:33;97719.25;;;4.73;100.00
68169;BME280;54981;50.206;15.978;2022-11-23T11:24:02;97721.34;;;4.66;100.00
68169;BME280;54981;50.206;15.978;2022-11-23T11:26:30;97713.19;;;4.70;100.00
68169;BME280;54981;50.206;15.978;2022-11-23T11:29:02;97718.06;;;4.78;100.00
68169;BME280;54981;50.206;15.978;2022-11-23T11:34:23;97721.66;;;4.77;100.00
68169;BME280;54981;50.206;15.978;2022-11-23T11:36:55;97713.13;;;4.72;100.00
68169;BME280;54981;50.206;15.978;2022-11-23T11:39:27;97721.03;;;4.72;100.00
68169;BME280;54981;50.206;15.978;2022-11-23T11:41:57;97711.34;;;4.73;100.00
68169;BME280;54981;50.206;15.978;2022-11-23T11:44:25;97708.66;;;4.74;100.00
68169;BME280;54981;50.206;15.978;2022-11-23T11:47:20;97719.03;;;4.77;100.00
68169;BME280;54981;50.206;15.978;2022-11-23T11:49:49;97717.16;;;4.79;100.00
68169;BME280;54981;50.206;15.978;2022-11-23T11:52:20;97719.41;;;4.87;100.00
68169;BME280;54981;50.206;15.978;2022-11-23T11:54:54;97716.38;;;4.95;100.00
68169;BME280;54981;50.206;15.978;2022-11-23T11:57:27;97718.38;;;4.89;100.00
68169;BME280;54981;50.206;15.978;2022-11-23T11:59:56;97720.06;;;4.90;100.00
68169;BME280;54981;50.206;15.978;2022-11-23T12:02:23;97725.53;;;4.87;100.00
68169;BME280;54981;50.206;15.978;2022-11-23T12:04:59;97722.81;;;4.89;100.00
68169;BME280;54981;50.206;15.978;2022-11-23T12:07:34;97727.25;;;4.88;100.00
68169;BME280;54981;50.206;15.978;2022-11-23T12:10:14;97725.53;;;4.87;100.00
68169;BME280;54981;50.206;15.978;2022-11-23T12:12:41;97733.38;;;4.89;100.00
68169;BME280;54981;50.206;15.978;2022-11-23T12:15:15;97736.63;;;4.94;100.00
68169;BME280;54981;50.206;15.978;2022-11-23T12:28:41;97743.91;;;4.89;100.00
68169;BME280;54981;50.206;15.978;2022-11-23T12:33:46;97739.66;;;4.86;100.00
68169;BME280;54981;50.206;15.978;2022-11-23T12:38:54;97733.38;;;4.89;100.00
68169;BME280;54981;50.206;15.978;2022-11-23T12:47:21;97746.56;;;4.89;100.00
68169;BME280;54981;50.206;15.978;2022-11-23T12:50:02;97747.41;;;4.89;100.00
68169;BME280;54981;50.206;15.978;2022-11-23T12:52:49;97743.81;;;4.90;100.00
68169;BME280;54981;50.206;15.978;2022-11-23T12:56:27;97745.72;;;4.88;100.00
68169;BME280;54981;50.206;15.978;2022-11-23T12:58:29;97748.34;;;4.88;100.00
68169;BME280;54981;50.206;15.978;2022-11-23T13:01:01;97750.88;;;4.90;100.00
68169;BME280;54981;50.206;15.978;2022-11-23T13:08:57;97755.91;;;4.95;100.00
68169;BME280;54981;50.206;15.978;2022-11-23T13:22:48;97751.81;;;4.89;100.00
68169;BME280;54981;50.206;15.978;2022-11-23T13:30:26;97755.47;;;4.86;100.00
68169;BME280;54981;50.206;15.978;2022-11-23T13:40:43;97766.09;;;4.85;100.00
68169;BME280;54981;50.206;15.978;2022-11-23T13:43:17;97772.31;;;4.84;100.00
68169;BME280;54981;50.206;15.978;2022-11-23T13:46:09;97773.16;;;4.84;100.00
68169;BME280;54981;50.206;15.978;2022-11-23T13:48:30;97764.47;;;4.82;100.00
68169;BME280;54981;50.206;15.978;2022-11-23T13:50:57;97770.59;;;4.83;100.00
68169;BME280;54981;50.206;15.978;2022-11-23T13:53:34;97770.69;;;4.81;100.00
68169;BME280;54981;50.206;15.978;2022-11-23T13:56:23;97774.22;;;4.80;100.00
68169;BME280;54981;50.206;15.978;2022-11-23T13:58:53;97776.88;;;4.80;100.00
68169;BME280;54981;50.206;15.978;2022-11-23T14:02:22;97775.19;;;4.79;100.00
68169;BME280;54981;50.206;15.978;2022-11-23T14:04:30;97770.03;;;4.76;100.00
68169;BME280;54981;50.206;15.978;2022-11-23T14:23:07;97777.81;;;4.62;100.00
68169;BME280;54981;50.206;15.978;2022-11-23T14:31:30;97763.75;;;4.44;100.00
68169;BME280;54981;50.206;15.978;2022-11-23T14:42:00;97753.09;;;4.28;100.00
68169;BME280;54981;50.206;15.978;2022-11-23T14:44:28;97762.78;;;4.27;100.00